sensor_id;sensor_type;location;lat;lon;timestamp;pressure;altitude;pressure_sealevel;temperature;humidity
59493;BME280;45497;43.996;22.876;2023-05-21T00:01:09;101134.69;;;18.36;57.05
59493;BME280;45497;43.996;22.876;2023-05-21T00:03:41;101133.69;;;18.23;57.45
59493;BME280;45497;43.996;22.876;2023-05-21T00:06:07;101138.03;;;18.24;57.30
59493;BME280;45497;43.996;22.876;2023-05-21T00:08:32;101128.31;;;18.30;56.92
59493;BME280;45497;43.996;22.876;2023-05-21T00:10:58;101125.63;;;18.37;56.58
59493;BME280;45497;43.996;22.876;2023-05-21T00:13:24;101127.44;;;18.43;56.42
59493;BME280;45497;43.996;22.876;2023-05-21T00:15:49;101136.91;;;18.52;56.05
59493;BME280;45497;43.996;22.876;2023-05-21T00:18:15;101133.00;;;18.48;56.00
59493;BME280;45497;43.996;22.876;2023-05-21T00:20:40;101137.72;;;18.52;55.84
59493;BME280;45497;43.996;22.876;2023-05-21T00:23:06;101127.81;;;18.53;55.75
59493;BME280;45497;43.996;22.876;2023-05-21T00:25:32;101122.88;;;18.50;55.68
59493;BME280;45497;43.996;22.876;2023-05-21T00:27:57;101111.94;;;18.45;55.70
59493;BME280;45497;43.996;22.876;2023-05-21T00:30:22;101102.47;;;18.36;55.90
59493;BME280;45497;43.996;22.876;2023-05-21T00:32:48;101114.06;;;18.29;56.21
59493;BME280;45497;43.996;22.876;2023-05-21T00:35:13;101099.66;;;18.10;56.81
59493;BME280;45497;43.996;22.876;2023-05-21T00:37:39;101101.31;;;18.11;56.71
59493;BME280;45497;43.996;22.876;2023-05-21T00:40:05;101100.28;;;18.06;56.69
59493;BME280;45497;43.996;22.876;2023-05-21T00:42:35;101102.16;;;18.05;57.07
59493;BME280;45497;43.996;22.876;2023-05-21T00:45:06;101094.97;;;17.92;57.36
59493;BME280;45497;43.996;22.876;2023-05-21T00:47:32;101099.06;;;17.95;57.35
59493;BME280;45497;43.996;22.876;2023-05-21T00:49:58;101094.53;;;17.95;57.27
59493;BME280;45497;43.996;22.876;2023-05-21T00:52:24;101103.00;;;17.92;57.35
59493;BME280;45497;43.996;22.876;2023-05-21T00:54:51;101106.91;;;17.83;57.89
59493;BME280;45497;43.996;22.876;2023-05-21T00:57:23;101096.38;;;17.75;57.99
59493;BME280;45497;43.996;22.876;2023-05-21T00:59:50;101087.31;;;17.69;58.10
59493;BME280;45497;43.996;22.876;2023-05-21T01:02:16;101098.88;;;17.70;58.51
59493;BME280;45497;43.996;22.876;2023-05-21T01:04:45;101091.06;;;17.68;58.35
59493;BME280;45497;43.996;22.876;2023-05-21T01:07:12;101092.03;;;17.81;57.93
59493;BME280;45497;43.996;22.876;2023-05-21T01:09:39;101099.06;;;17.95;57.33
59493;BME280;45497;43.996;22.876;2023-05-21T01:12:06;101097.84;;;17.98;57.03
59493;BME280;45497;43.996;22.876;2023-05-21T01:14:34;101102.19;;;17.85;57.31
59493;BME280;45497;43.996;22.876;2023-05-21T01:17:01;101103.00;;;17.72;57.84
59493;BME280;45497;43.996;22.876;2023-05-21T01:19:27;101097.84;;;17.71;57.75
59493;BME280;45497;43.996;22.876;2023-05-21T01:22:05;101091.44;;;17.78;57.40
59493;BME280;45497;43.996;22.876;2023-05-21T01:24:31;101088.53;;;17.80;57.15
59493;BME280;45497;43.996;22.876;2023-05-21T01:26:58;101084.22;;;17.79;57.40
59493;BME280;45497;43.996;22.876;2023-05-21T01:29:23;101099.28;;;17.73;57.21
59493;BME280;45497;43.996;22.876;2023-05-21T01:32:53;101086.31;;;17.70;57.18
59493;BME280;45497;43.996;22.876;2023-05-21T01:37:52;101096.19;;;17.56;57.61
59493;BME280;45497;43.996;22.876;2023-05-21T01:40:34;101085.28;;;17.58;57.28
59493;BME280;45497;43.996;22.876;2023-05-21T01:43:04;101089.00;;;17.44;57.85
59493;BME280;45497;43.996;22.876;2023-05-21T01:45:31;101084.25;;;17.39;58.01
59493;BME280;45497;43.996;22.876;2023-05-21T01:47:57;101097.84;;;17.51;57.76
59493;BME280;45497;43.996;22.876;2023-05-21T01:50:24;101092.28;;;17.46;57.74
59493;BME280;45497;43.996;22.876;2023-05-21T01:52:55;101094.97;;;17.52;57.53
59493;BME280;45497;43.996;22.876;2023-05-21T01:55:23;101089.81;;;17.57;57.39
59493;BME280;45497;43.996;22.876;2023-05-21T01:57:55;101086.28;;;17.57;57.32
59493;BME280;45497;43.996;22.876;2023-05-21T02:00:22;101092.28;;;17.59;57.06
59493;BME280;45497;43.996;22.876;2023-05-21T02:02:49;101096.19;;;17.56;57.28
59493;BME280;45497;43.996;22.876;2023-05-21T02:05:14;101090.63;;;17.51;57.17
59493;BME280;45497;43.996;22.876;2023-05-21T02:07:40;101092.28;;;17.52;57.04
59493;BME280;45497;43.996;22.876;2023-05-21T02:10:08;101095.38;;;17.49;57.20
59493;BME280;45497;43.996;22.876;2023-05-21T02:12:34;101096.22;;;17.43;57.46
59493;BME280;45497;43.996;22.876;2023-05-21T02:14:59;101107.34;;;17.40;57.51
59493;BME280;45497;43.996;22.876;2023-05-21T02:17:25;101102.78;;;17.41;57.23
59493;BME280;45497;43.996;22.876;2023-05-21T02:19:50;101097.63;;;17.26;57.43
59493;BME280;45497;43.996;22.876;2023-05-21T02:22:16;101107.31;;;17.20;57.73
59493;BME280;45497;43.996;22.876;2023-05-21T02:24:42;101105.66;;;17.06;58.14
59493;BME280;45497;43.996;22.876;2023-05-21T02:27:07;101101.50;;;16.90;58.74
59493;BME280;45497;43.996;22.876;2023-05-21T02:29:35;101100.63;;;16.82;58.85
59493;BME280;45497;43.996;22.876;2023-05-21T02:32:00;101107.84;;;16.82;58.94
59493;BME280;45497;43.996;22.876;2023-05-21T02:34:26;101105.13;;;16.75;58.99
59493;BME280;45497;43.996;22.876;2023-05-21T02:36:55;101111.28;;;16.76;59.09
59493;BME280;45497;43.996;22.876;2023-05-21T02:39:20;101116.31;;;16.86;58.70
59493;BME280;45497;43.996;22.876;2023-05-21T02:41:46;101116.31;;;16.92;58.19
59493;BME280;45497;43.996;22.876;2023-05-21T02:44:12;101108.28;;;16.92;58.01
59493;BME280;45497;43.996;22.876;2023-05-21T02:46:38;101101.91;;;16.93;57.93
59493;BME280;45497;43.996;22.876;2023-05-21T02:49:04;101108.47;;;16.84;58.30
59493;BME280;45497;43.996;22.876;2023-05-21T02:51:29;101101.78;;;16.67;58.97
59493;BME280;45497;43.996;22.876;2023-05-21T02:53:55;101103.19;;;16.56;59.34
59493;BME280;45497;43.996;22.876;2023-05-21T02:56:21;101099.28;;;16.52;59.50
59493;BME280;45497;43.996;22.876;2023-05-21T02:58:46;101095.56;;;16.46;59.50
59493;BME280;45497;43.996;22.876;2023-05-21T03:01:12;101095.94;;;16.43;59.59
59493;BME280;45497;43.996;22.876;2023-05-21T03:03:37;101100.69;;;16.41;59.74
59493;BME280;45497;43.996;22.876;2023-05-21T03:06:03;101105.41;;;16.46;59.36
59493;BME280;45497;43.996;22.876;2023-05-21T03:08:28;101105.41;;;16.39;59.41
59493;BME280;45497;43.996;22.876;2023-05-21T03:10:54;101111.53;;;16.33;59.73
59493;BME280;45497;43.996;22.876;2023-05-21T03:13:19;101110.03;;;16.23;59.99
59493;BME280;45497;43.996;22.876;2023-05-21T03:15:46;101110.59;;;16.12;60.25
59493;BME280;45497;43.996;22.876;2023-05-21T03:18:12;101112.59;;;16.03;60.55
59493;BME280;45497;43.996;22.876;2023-05-21T03:20:38;101114.72;;;16.08;60.27
59493;BME280;45497;43.996;22.876;2023-05-21T03:23:10;101117.41;;;16.15;59.99
59493;BME280;45497;43.996;22.876;2023-05-21T03:25:37;101108.38;;;16.16;59.88
59493;BME280;45497;43.996;22.876;2023-05-21T03:28:02;101108.00;;;15.91;60.50
59493;BME280;45497;43.996;22.876;2023-05-21T03:30:28;101104.59;;;15.75;61.15
59493;BME280;45497;43.996;22.876;2023-05-21T03:32:53;101113.94;;;15.64;61.63
59493;BME280;45497;43.996;22.876;2023-05-21T03:35:20;101121.00;;;15.72;61.38
59493;BME280;45497;43.996;22.876;2023-05-21T03:37:46;101126.88;;;15.61;61.43
59493;BME280;45497;43.996;22.876;2023-05-21T03:40:11;101117.78;;;15.55;61.70
59493;BME280;45497;43.996;22.876;2023-05-21T03:42:38;101120.06;;;15.58;61.77
59493;BME280;45497;43.996;22.876;2023-05-21T03:45:04;101124.00;;;15.62;61.61
59493;BME280;45497;43.996;22.876;2023-05-21T03:47:30;101121.91;;;15.58;61.70
59493;BME280;45497;43.996;22.876;2023-05-21T03:49:56;101112.06;;;15.58;61.73
59493;BME280;45497;43.996;22.876;2023-05-21T03:52:21;101126.19;;;15.52;62.16
59493;BME280;45497;43.996;22.876;2023-05-21T03:54:46;101120.19;;;15.50;62.01
59493;BME280;45497;43.996;22.876;2023-05-21T03:57:12;101119.38;;;15.49;62.02
59493;BME280;45497;43.996;22.876;2023-05-21T03:59:37;101118.38;;;15.51;61.75
59493;BME280;45497;43.996;22.876;2023-05-21T04:02:03;101121.22;;;15.49;61.72
59493;BME280;45497;43.996;22.876;2023-05-21T04:04:29;101125.59;;;15.57;61.67
59493;BME280;45497;43.996;22.876;2023-05-21T04:06:54;101118.69;;;15.41;61.99
59493;BME280;45497;43.996;22.876;2023-05-21T04:09:20;101122.22;;;15.48;61.93
59493;BME280;45497;43.996;22.876;2023-05-21T04:11:46;101123.19;;;15.62;61.69
59493;BME280;45497;43.996;22.876;2023-05-21T04:14:12;101124.69;;;15.71;61.40
59493;BME280;45497;43.996;22.876;2023-05-21T04:16:38;101120.88;;;15.80;61.37
59493;BME280;45497;43.996;22.876;2023-05-21T04:19:04;101121.50;;;15.82;61.59
59493;BME280;45497;43.996;22.876;2023-05-21T04:21:29;101117.63;;;15.85;61.43
59493;BME280;45497;43.996;22.876;2023-05-21T04:23:56;101112.91;;;15.87;61.49
59493;BME280;45497;43.996;22.876;2023-05-21T04:26:22;101118.31;;;15.94;61.48
59493;BME280;45497;43.996;22.876;2023-05-21T04:28:49;101122.50;;;16.10;61.30
59493;BME280;45497;43.996;22.876;2023-05-21T04:31:15;101128.94;;;16.15;61.46
59493;BME280;45497;43.996;22.876;2023-05-21T04:33:41;101125.66;;;16.20;60.99
59493;BME280;45497;43.996;22.876;2023-05-21T04:36:10;101127.53;;;16.19;61.18
59493;BME280;45497;43.996;22.876;2023-05-21T04:38:36;101120.06;;;16.15;61.47
59493;BME280;45497;43.996;22.876;2023-05-21T04:41:02;101112.91;;;16.22;61.15
59493;BME280;45497;43.996;22.876;2023-05-21T04:43:28;101118.75;;;16.32;61.02
59493;BME280;45497;43.996;22.876;2023-05-21T04:45:54;101116.88;;;16.33;61.18
59493;BME280;45497;43.996;22.876;2023-05-21T04:48:20;101127.25;;;16.49;60.81
59493;BME280;45497;43.996;22.876;2023-05-21T04:50:49;101122.97;;;16.55;60.58
59493;BME280;45497;43.996;22.876;2023-05-21T04:53:15;101121.09;;;16.49;60.63
59493;BME280;45497;43.996;22.876;2023-05-21T04:55:41;101117.19;;;16.58;60.54
59493;BME280;45497;43.996;22.876;2023-05-21T04:58:06;101118.25;;;16.63;60.46
59493;BME280;45497;43.996;22.876;2023-05-21T05:00:37;101121.78;;;16.64;60.72
59493;BME280;45497;43.996;22.876;2023-05-21T05:03:03;101115.56;;;16.63;60.83
59493;BME280;45497;43.996;22.876;2023-05-21T05:05:28;101121.34;;;16.60;60.94
59493;BME280;45497;43.996;22.876;2023-05-21T05:07:54;101125.84;;;16.60;61.42
59493;BME280;45497;43.996;22.876;2023-05-21T05:10:20;101129.19;;;16.69;61.25
59493;BME280;45497;43.996;22.876;2023-05-21T05:12:46;101128.81;;;16.78;61.10
59493;BME280;45497;43.996;22.876;2023-05-21T05:15:12;101135.91;;;16.99;60.69
59493;BME280;45497;43.996;22.876;2023-05-21T05:17:37;101138.00;;;17.17;60.26
59493;BME280;45497;43.996;22.876;2023-05-21T05:20:06;101125.84;;;17.15;60.16
59493;BME280;45497;43.996;22.876;2023-05-21T05:22:31;101130.81;;;17.25;60.09
59493;BME280;45497;43.996;22.876;2023-05-21T05:24:57;101127.13;;;17.32;60.01
59493;BME280;45497;43.996;22.876;2023-05-21T05:27:22;101133.09;;;17.41;59.74
59493;BME280;45497;43.996;22.876;2023-05-21T05:29:48;101127.97;;;17.39;59.74
59493;BME280;45497;43.996;22.876;2023-05-21T05:32:13;101116.59;;;17.31;60.10
59493;BME280;45497;43.996;22.876;2023-05-21T05:34:39;101125.47;;;17.51;59.89
59493;BME280;45497;43.996;22.876;2023-05-21T05:37:04;101125.28;;;17.73;59.45
59493;BME280;45497;43.996;22.876;2023-05-21T05:39:29;101132.50;;;17.79;59.12
59493;BME280;45497;43.996;22.876;2023-05-21T05:41:55;101133.53;;;17.85;59.15
59493;BME280;45497;43.996;22.876;2023-05-21T05:44:20;101128.34;;;17.76;59.15
59493;BME280;45497;43.996;22.876;2023-05-21T05:46:46;101118.28;;;17.85;59.08
59493;BME280;45497;43.996;22.876;2023-05-21T05:49:11;101124.25;;;17.94;58.88
59493;BME280;45497;43.996;22.876;2023-05-21T05:51:38;101124.25;;;18.01;58.87
59493;BME280;45497;43.996;22.876;2023-05-21T05:54:03;101127.91;;;18.13;58.62
59493;BME280;45497;43.996;22.876;2023-05-21T05:56:29;101124.22;;;18.21;58.53
59493;BME280;45497;43.996;22.876;2023-05-21T05:58:54;101120.84;;;18.39;58.22
59493;BME280;45497;43.996;22.876;2023-05-21T06:01:20;101118.31;;;18.50;58.03
59493;BME280;45497;43.996;22.876;2023-05-21T06:03:49;101117.00;;;18.66;57.71
59493;BME280;45497;43.996;22.876;2023-05-21T06:06:15;101115.34;;;18.65;57.61
59493;BME280;45497;43.996;22.876;2023-05-21T06:08:41;101122.31;;;18.80;57.38
59493;BME280;45497;43.996;22.876;2023-05-21T06:11:07;101113.66;;;18.84;57.07
59493;BME280;45497;43.996;22.876;2023-05-21T06:13:32;101104.31;;;18.87;57.43
59493;BME280;45497;43.996;22.876;2023-05-21T06:15:58;101103.56;;;19.12;57.01
59493;BME280;45497;43.996;22.876;2023-05-21T06:18:23;101111.88;;;19.35;56.72
59493;BME280;45497;43.996;22.876;2023-05-21T06:20:49;101097.19;;;19.38;56.29
59493;BME280;45497;43.996;22.876;2023-05-21T06:23:15;101101.78;;;19.56;56.31
59493;BME280;45497;43.996;22.876;2023-05-21T06:25:40;101107.09;;;19.62;56.04
59493;BME280;45497;43.996;22.876;2023-05-21T06:28:06;101110.41;;;19.64;55.81
59493;BME280;45497;43.996;22.876;2023-05-21T06:30:31;101104.72;;;19.79;55.46
59493;BME280;45497;43.996;22.876;2023-05-21T06:32:57;101107.09;;;19.88;55.12
59493;BME280;45497;43.996;22.876;2023-05-21T06:35:22;101108.69;;;20.14;54.95
59493;BME280;45497;43.996;22.876;2023-05-21T06:37:48;101107.88;;;20.32;54.52
59493;BME280;45497;43.996;22.876;2023-05-21T06:40:14;101114.06;;;20.51;54.08
59493;BME280;45497;43.996;22.876;2023-05-21T06:42:39;101111.78;;;20.85;53.33
59493;BME280;45497;43.996;22.876;2023-05-21T06:45:05;101111.75;;;21.03;52.56
59493;BME280;45497;43.996;22.876;2023-05-21T06:47:31;101105.81;;;21.25;52.15
59493;BME280;45497;43.996;22.876;2023-05-21T06:49:58;101106.84;;;21.54;51.08
59493;BME280;45497;43.996;22.876;2023-05-21T06:52:24;101100.72;;;21.58;50.61
59493;BME280;45497;43.996;22.876;2023-05-21T06:54:51;101105.41;;;21.75;50.59
59493;BME280;45497;43.996;22.876;2023-05-21T06:57:16;101109.28;;;22.03;49.08
59493;BME280;45497;43.996;22.876;2023-05-21T06:59:42;101093.16;;;22.20;47.89
59493;BME280;45497;43.996;22.876;2023-05-21T07:02:07;101103.34;;;22.41;47.10
59493;BME280;45497;43.996;22.876;2023-05-21T07:04:33;101102.78;;;22.39;47.20
59493;BME280;45497;43.996;22.876;2023-05-21T07:06:59;101091.34;;;22.49;46.80
59493;BME280;45497;43.996;22.876;2023-05-21T07:09:25;101091.06;;;22.62;47.24
59493;BME280;45497;43.996;22.876;2023-05-21T07:11:50;101084.78;;;22.74;46.50
59493;BME280;45497;43.996;22.876;2023-05-21T07:14:17;101087.03;;;22.77;46.09
59493;BME280;45497;43.996;22.876;2023-05-21T07:16:44;101084.56;;;22.75;46.36
59493;BME280;45497;43.996;22.876;2023-05-21T07:19:09;101091.78;;;22.86;46.50
59493;BME280;45497;43.996;22.876;2023-05-21T07:21:35;101087.56;;;22.90;46.22
59493;BME280;45497;43.996;22.876;2023-05-21T07:24:00;101086.78;;;23.07;46.41
59493;BME280;45497;43.996;22.876;2023-05-21T07:26:26;101087.78;;;23.18;46.27
59493;BME280;45497;43.996;22.876;2023-05-21T07:28:52;101086.22;;;23.22;46.17
59493;BME280;45497;43.996;22.876;2023-05-21T07:31:17;101085.22;;;23.45;45.44
59493;BME280;45497;43.996;22.876;2023-05-21T07:33:43;101086.53;;;23.42;44.76
59493;BME280;45497;43.996;22.876;2023-05-21T07:36:08;101080.94;;;23.66;44.59
59493;BME280;45497;43.996;22.876;2023-05-21T07:38:33;101071.50;;;23.85;43.74
59493;BME280;45497;43.996;22.876;2023-05-21T07:40:59;101072.38;;;23.91;43.75
59493;BME280;45497;43.996;22.876;2023-05-21T07:43:25;101075.13;;;24.13;43.43
59493;BME280;45497;43.996;22.876;2023-05-21T07:45:50;101085.06;;;24.08;43.66
59493;BME280;45497;43.996;22.876;2023-05-21T07:48:17;101075.53;;;24.27;43.59
59493;BME280;45497;43.996;22.876;2023-05-21T07:50:42;101071.66;;;24.40;43.53
59493;BME280;45497;43.996;22.876;2023-05-21T07:53:09;101076.78;;;24.41;43.38
59493;BME280;45497;43.996;22.876;2023-05-21T07:55:35;101076.09;;;24.51;42.71
59493;BME280;45497;43.996;22.876;2023-05-21T07:58:01;101084.03;;;24.36;42.73
59493;BME280;45497;43.996;22.876;2023-05-21T08:00:26;101064.94;;;24.48;42.94
59493;BME280;45497;43.996;22.876;2023-05-21T08:02:52;101069.44;;;24.59;42.99
59493;BME280;45497;43.996;22.876;2023-05-21T08:05:17;101062.69;;;24.61;42.48
59493;BME280;45497;43.996;22.876;2023-05-21T08:07:44;101063.56;;;24.67;42.31
59493;BME280;45497;43.996;22.876;2023-05-21T08:10:10;101053.59;;;24.73;42.28
59493;BME280;45497;43.996;22.876;2023-05-21T08:12:35;101053.94;;;24.82;42.13
59493;BME280;45497;43.996;22.876;2023-05-21T08:15:01;101058.13;;;24.94;42.57
59493;BME280;45497;43.996;22.876;2023-05-21T08:17:26;101072.34;;;25.07;41.54
59493;BME280;45497;43.996;22.876;2023-05-21T08:19:55;101059.88;;;25.11;41.88
59493;BME280;45497;43.996;22.876;2023-05-21T08:22:20;101065.31;;;25.11;41.16
59493;BME280;45497;43.996;22.876;2023-05-21T08:24:46;101062.72;;;24.94;40.54
59493;BME280;45497;43.996;22.876;2023-05-21T08:27:12;101058.66;;;24.96;39.71
59493;BME280;45497;43.996;22.876;2023-05-21T08:29:39;101051.88;;;24.94;39.13
59493;BME280;45497;43.996;22.876;2023-05-21T08:32:04;101065.50;;;25.04;38.94
59493;BME280;45497;43.996;22.876;2023-05-21T08:34:30;101055.91;;;24.91;39.03
59493;BME280;45497;43.996;22.876;2023-05-21T08:36:55;101064.53;;;24.83;38.77
59493;BME280;45497;43.996;22.876;2023-05-21T08:39:21;101053.00;;;24.98;38.76
59493;BME280;45497;43.996;22.876;2023-05-21T08:41:49;101059.09;;;25.15;38.20
59493;BME280;45497;43.996;22.876;2023-05-21T08:44:19;101058.47;;;25.08;38.16
59493;BME280;45497;43.996;22.876;2023-05-21T08:46:48;101044.91;;;25.08;38.42
59493;BME280;45497;43.996;22.876;2023-05-21T08:49:16;101052.34;;;25.18;38.36
59493;BME280;45497;43.996;22.876;2023-05-21T08:51:44;101056.78;;;25.29;38.32
59493;BME280;45497;43.996;22.876;2023-05-21T08:54:11;101046.22;;;25.33;37.96
59493;BME280;45497;43.996;22.876;2023-05-21T08:56:39;101043.59;;;25.43;38.03
59493;BME280;45497;43.996;22.876;2023-05-21T08:59:10;101046.69;;;25.62;38.07
59493;BME280;45497;43.996;22.876;2023-05-21T09:01:35;101044.84;;;25.68;38.06
59493;BME280;45497;43.996;22.876;2023-05-21T09:04:02;101032.41;;;25.87;37.40
59493;BME280;45497;43.996;22.876;2023-05-21T09:06:28;101046.00;;;25.87;37.02
59493;BME280;45497;43.996;22.876;2023-05-21T09:09:05;101047.34;;;25.85;37.57
59493;BME280;45497;43.996;22.876;2023-05-21T09:11:33;101047.66;;;25.88;37.29
59493;BME280;45497;43.996;22.876;2023-05-21T09:14:00;101039.47;;;25.83;37.06
59493;BME280;45497;43.996;22.876;2023-05-21T09:16:26;101039.75;;;25.87;36.71
59493;BME280;45497;43.996;22.876;2023-05-21T09:18:53;101034.56;;;25.80;36.28
59493;BME280;45497;43.996;22.876;2023-05-21T09:21:26;101036.16;;;25.71;36.38
59493;BME280;45497;43.996;22.876;2023-05-21T09:23:56;101038.19;;;25.96;36.56
59493;BME280;45497;43.996;22.876;2023-05-21T09:26:23;101027.13;;;26.08;36.47
59493;BME280;45497;43.996;22.876;2023-05-21T09:28:59;101031.72;;;26.02;36.00
59493;BME280;45497;43.996;22.876;2023-05-21T09:31:25;101030.88;;;25.97;35.77
59493;BME280;45497;43.996;22.876;2023-05-21T09:33:51;101025.44;;;26.02;36.30
59493;BME280;45497;43.996;22.876;2023-05-21T09:36:18;101029.31;;;26.16;36.22
59493;BME280;45497;43.996;22.876;2023-05-21T09:38:47;101031.25;;;26.26;35.71
59493;BME280;45497;43.996;22.876;2023-05-21T09:41:13;101029.09;;;26.33;36.21
59493;BME280;45497;43.996;22.876;2023-05-21T09:43:42;101030.16;;;26.32;36.34
59493;BME280;45497;43.996;22.876;2023-05-21T09:46:08;101027.72;;;26.36;36.44
59493;BME280;45497;43.996;22.876;2023-05-21T09:48:52;101017.41;;;26.43;36.05
59493;BME280;45497;43.996;22.876;2023-05-21T09:51:19;101025.84;;;26.46;35.93
59493;BME280;45497;43.996;22.876;2023-05-21T09:53:57;101017.97;;;26.50;35.70
59493;BME280;45497;43.996;22.876;2023-05-21T09:56:27;101002.22;;;26.57;35.65
59493;BME280;45497;43.996;22.876;2023-05-21T09:59:00;101006.06;;;26.66;35.43
59493;BME280;45497;43.996;22.876;2023-05-21T10:01:30;101010.09;;;26.59;35.17
59493;BME280;45497;43.996;22.876;2023-05-21T10:03:58;101019.34;;;26.58;35.33
59493;BME280;45497;43.996;22.876;2023-05-21T10:06:29;101013.38;;;26.45;35.68
59493;BME280;45497;43.996;22.876;2023-05-21T10:08:58;101023.69;;;26.59;36.00
59493;BME280;45497;43.996;22.876;2023-05-21T10:11:25;101015.31;;;26.65;36.36
59493;BME280;45497;43.996;22.876;2023-05-21T10:14:00;101025.66;;;26.74;36.17
59493;BME280;45497;43.996;22.876;2023-05-21T10:16:33;101009.63;;;26.67;35.73
59493;BME280;45497;43.996;22.876;2023-05-21T10:18:59;101006.84;;;26.57;35.79
59493;BME280;45497;43.996;22.876;2023-05-21T10:21:26;101016.34;;;26.49;35.99
59493;BME280;45497;43.996;22.876;2023-05-21T10:23:52;100998.16;;;26.55;36.00
59493;BME280;45497;43.996;22.876;2023-05-21T10:26:20;101009.88;;;26.76;35.90
59493;BME280;45497;43.996;22.876;2023-05-21T10:28:50;101006.34;;;26.75;35.81
59493;BME280;45497;43.996;22.876;2023-05-21T10:31:17;100997.63;;;26.73;35.50
59493;BME280;45497;43.996;22.876;2023-05-21T10:33:43;100995.72;;;26.79;36.02
59493;BME280;45497;43.996;22.876;2023-05-21T10:36:08;100985.13;;;26.82;35.85
59493;BME280;45497;43.996;22.876;2023-05-21T10:38:35;100990.00;;;27.01;35.68
59493;BME280;45497;43.996;22.876;2023-05-21T10:41:02;100988.09;;;27.17;36.28
59493;BME280;45497;43.996;22.876;2023-05-21T10:46:52;100987.03;;;27.28;35.30
59493;BME280;45497;43.996;22.876;2023-05-21T10:49:37;100991.09;;;27.05;35.55
59493;BME280;45497;43.996;22.876;2023-05-21T10:57:30;100977.78;;;27.14;34.89
59493;BME280;45497;43.996;22.876;2023-05-21T10:59:59;100987.28;;;27.21;34.44
59493;BME280;45497;43.996;22.876;2023-05-21T11:02:25;100974.75;;;27.31;34.37
59493;BME280;45497;43.996;22.876;2023-05-21T11:05:00;100975.00;;;27.24;33.80
59493;BME280;45497;43.996;22.876;2023-05-21T11:07:55;100974.50;;;27.06;33.87
59493;BME280;45497;43.996;22.876;2023-05-21T11:10:31;100961.72;;;27.17;34.51
59493;BME280;45497;43.996;22.876;2023-05-21T11:13:07;100962.47;;;27.38;34.36
59493;BME280;45497;43.996;22.876;2023-05-21T11:21:35;100951.91;;;27.32;34.26
59493;BME280;45497;43.996;22.876;2023-05-21T11:23:59;100956.50;;;27.41;34.48
59493;BME280;45497;43.996;22.876;2023-05-21T11:29:14;100942.34;;;27.44;32.94
59493;BME280;45497;43.996;22.876;2023-05-21T11:31:48;100936.56;;;27.51;33.37
59493;BME280;45497;43.996;22.876;2023-05-21T11:34:23;100926.25;;;27.48;33.59
59493;BME280;45497;43.996;22.876;2023-05-21T11:39:47;100922.94;;;27.51;33.23
59493;BME280;45497;43.996;22.876;2023-05-21T11:42:37;100925.63;;;27.67;33.59
59493;BME280;45497;43.996;22.876;2023-05-21T11:45:03;100925.16;;;27.49;32.92
59493;BME280;45497;43.996;22.876;2023-05-21T11:47:30;100918.38;;;27.41;32.96
59493;BME280;45497;43.996;22.876;2023-05-21T11:49:59;100910.44;;;27.50;33.39
59493;BME280;45497;43.996;22.876;2023-05-21T11:52:27;100914.97;;;27.70;33.34
59493;BME280;45497;43.996;22.876;2023-05-21T11:54:53;100907.28;;;27.82;33.39
59493;BME280;45497;43.996;22.876;2023-05-21T11:57:27;100907.88;;;27.74;32.32
59493;BME280;45497;43.996;22.876;2023-05-21T11:59:56;100896.97;;;27.74;32.50
59493;BME280;45497;43.996;22.876;2023-05-21T12:02:23;100897.28;;;27.68;31.87
59493;BME280;45497;43.996;22.876;2023-05-21T12:04:49;100893.81;;;27.57;32.13
59493;BME280;45497;43.996;22.876;2023-05-21T12:07:17;100900.31;;;27.66;32.30
59493;BME280;45497;43.996;22.876;2023-05-21T12:09:48;100888.03;;;27.69;32.25
59493;BME280;45497;43.996;22.876;2023-05-21T12:12:18;100881.25;;;27.61;32.23
59493;BME280;45497;43.996;22.876;2023-05-21T12:14:47;100883.63;;;27.73;32.59
59493;BME280;45497;43.996;22.876;2023-05-21T12:17:17;100871.59;;;27.84;31.95
59493;BME280;45497;43.996;22.876;2023-05-21T12:19:45;100870.00;;;27.78;32.34
59493;BME280;45497;43.996;22.876;2023-05-21T12:22:11;100874.31;;;27.84;32.51
59493;BME280;45497;43.996;22.876;2023-05-21T12:24:37;100858.75;;;27.95;32.03
59493;BME280;45497;43.996;22.876;2023-05-21T12:27:05;100855.03;;;27.75;31.97
59493;BME280;45497;43.996;22.876;2023-05-21T12:29:38;100867.31;;;27.68;32.18
59493;BME280;45497;43.996;22.876;2023-05-21T12:32:06;100851.41;;;27.40;32.53
59493;BME280;45497;43.996;22.876;2023-05-21T12:37:10;100830.81;;;27.74;32.56
59493;BME280;45497;43.996;22.876;2023-05-21T12:39:40;100832.34;;;27.90;32.32
59493;BME280;45497;43.996;22.876;2023-05-21T12:42:08;100821.47;;;27.80;31.77
59493;BME280;45497;43.996;22.876;2023-05-21T12:44:33;100817.97;;;27.79;31.90
59493;BME280;45497;43.996;22.876;2023-05-21T12:46:59;100822.22;;;27.96;32.16
59493;BME280;45497;43.996;22.876;2023-05-21T12:49:57;100812.34;;;28.05;31.15
59493;BME280;45497;43.996;22.876;2023-05-21T12:52:23;100822.19;;;28.01;31.06
59493;BME280;45497;43.996;22.876;2023-05-21T12:54:51;100818.16;;;27.88;31.13
59493;BME280;45497;43.996;22.876;2023-05-21T12:57:20;100817.97;;;27.79;31.60
59493;BME280;45497;43.996;22.876;2023-05-21T12:59:56;100818.00;;;27.69;31.61
59493;BME280;45497;43.996;22.876;2023-05-21T13:02:26;100814.97;;;27.76;32.37
59493;BME280;45497;43.996;22.876;2023-05-21T13:04:56;100814.44;;;27.79;31.50
59493;BME280;45497;43.996;22.876;2023-05-21T13:07:23;100820.31;;;27.96;31.27